Catàleg de serveis del Meteocat
Campanya meteocatpedra

Dades de l'estació automàtica Golmés

?
?
Resum diari 21:30 TU
Dades diàries de l'estació meteorològica
Temperatura mitjana 7.7 °C
Temperatura màxima 12.4 °C 15:32 TU
Temperatura mínima 2.8 °C 2:08 TU
Humitat relativa mitjana 84%
Precipitació acumulada 0.7 mm
Ratxa màxima del vent (2 m) 21.2 km/h - 227º 18:19 TU
Irradiació solar global 7.4 MJ/m2

El tram horari està expressat en Temps Universal (TU). Cal sumar una hora en horari d'hivern i dues en horari d'estiu per passar a l'hora oficial.

Golmés

Metadades estació meteorol´gica
Municipi Golmés
Comarca Pla d'Urgell
Altitud 261 m
Data alta 08.08.2000
Estat actual Operativa
Dades de període
Període
TU
TM
°C
TX
°C
TN
°C
HRM
%
PPT
mm
VVM (2 m)
km/h
DVM (2 m)
graus
VVX (2 m)
km/h
RS
W/m2
00:00 - 00:30 6.0 6.6 5.2 87 0.0 2.2 185 5.8 0
00:30 - 01:00 4.0 5.3 3.4 93 0.0 0.7 88 3.2 0
01:00 - 01:30 3.7 4.2 3.5 96 0.0 1.1 114 2.5 0
01:30 - 02:00 4.1 4.5 3.6 94 0.0 1.1 148 3.2 0
02:00 - 02:30 3.1 3.5 2.8 95 0.0 0.7 77 3.6 0
02:30 - 03:00 4.1 4.6 3.0 95 0.0 1.8 144 3.6 0
03:00 - 03:30 5.0 5.3 4.6 92 0.0 2.2 147 5.0 0
03:30 - 04:00 5.4 5.9 4.9 91 0.0 2.2 170 5.0 0
04:00 - 04:30 5.8 6.2 5.2 91 0.0 1.4 158 4.3 0
04:30 - 05:00 5.1 5.2 5.0 94 0.0 0.7 49 3.6 0
05:00 - 05:30 5.2 5.3 5.1 95 0.0 1.4 52 3.6 0
05:30 - 06:00 5.5 5.5 5.4 94 0.0 0.7 75 2.5 0
06:00 - 06:30 5.4 5.5 5.4 95 0.0 4.0 21 9.0 0
06:30 - 07:00 5.6 5.9 5.4 94 0.0 4.7 48 9.0 0
07:00 - 07:30 5.9 5.9 5.9 93 0.2 4.7 65 9.7 3
07:30 - 08:00 6.1 6.4 5.9 94 0.4 4.7 96 8.3 18
08:00 - 08:30 6.8 7.4 6.4 95 0.0 4.0 171 7.9 96
08:30 - 09:00 7.4 7.5 7.4 94 0.0 2.9 263 7.9 69
09:00 - 09:30 7.1 7.4 6.8 94 0.0 5.0 300 9.4 69
09:30 - 10:00 6.8 6.9 6.8 93 0.0 2.5 318 8.6 54
10:00 - 10:30 7.1 7.4 6.8 91 0.0 1.8 240 5.4 111
10:30 - 11:00 7.9 8.4 7.5 91 0.0 4.7 250 10.4 270
11:00 - 11:30 8.4 8.9 7.9 91 0.0 5.8 237 10.1 346
11:30 - 12:00 9.1 10.1 8.6 87 0.0 5.4 235 11.5 435
12:00 - 12:30 10.6 11.2 10.2 79 0.1 5.8 227 11.2 547
12:30 - 13:00 11.1 11.4 10.8 75 0.0 6.1 245 13.7 436
13:00 - 13:30 11.3 11.8 10.9 75 0.0 8.3 221 16.2 429
13:30 - 14:00 11.6 11.9 11.1 72 0.0 10.4 221 18.4 386
14:00 - 14:30 11.6 12.0 11.0 73 0.0 9.7 235 17.6 312
14:30 - 15:00 11.9 12.1 11.8 73 0.0 8.3 227 15.5 264
15:00 - 15:30 12.1 12.2 12.0 74 0.0 7.2 224 12.6 178
15:30 - 16:00 12.0 12.4 11.7 75 0.0 4.3 237 9.0 99
16:00 - 16:30 11.2 11.9 10.3 80 0.0 2.2 168 5.0 32
16:30 - 17:00 9.7 10.4 9.1 85 0.0 4.0 179 10.4 0
17:00 - 17:30 9.9 10.2 9.5 72 0.0 11.2 215 20.2 0
17:30 - 18:00 10.2 10.7 9.2 69 0.0 12.6 218 20.2 0
18:00 - 18:30 9.7 10.1 9.2 67 0.0 13.0 226 21.2 0
18:30 - 19:00 9.4 9.6 9.2 66 0.0 10.4 220 18.7 0
19:00 - 19:30 9.5 9.8 9.2 65 0.0 9.7 235 18.4 0
19:30 - 20:00 8.5 9.3 7.6 69 0.0 6.1 204 16.6 0
20:00 - 20:30 7.0 7.6 6.5 74 0.0 5.4 209 9.4 0
20:30 - 21:00 6.8 7.6 6.3 76 0.0 6.8 213 10.8 0
21:00 - 21:30 7.4 7.7 6.6 74 0.0 5.4 214 10.8 0
21:30 - 22:00 6.3 6.6 6.1 79 0.0 2.2 205 5.4 0

Les dades en taronja només han passat un control de qualitat automàtic. Resta pendent la seva validació definitiva.